Terminal Aerodrome Forecast
Issued by NWS Jackson, MS

Home | Current Version | Previous Version | Text Only | Print | Product List | Glossary On
Versions: 1 2 3 4 5 6 7 8 9 10 11 12 13 14 15 16
000
FTUS44 KJAN 221422 AAB
TAFJAN
TAF AMD
KJAN 221422Z 2214/2312 00000KT 1/4SM FG OVC002
     FM221530 35005KT 3SM BR OVC005
     FM221700 36007KT P6SM BKN030
     FM222200 02003KT P6SM SKC
     FM230600 VRB04KT 1SM BR SCT003=

USA.gov is the U.S. government's official web portal to all federal, state and local government web resources and services.